Terminal Aerodrome Forecast
Issued by NWS

Current Version | Previous Version | Text Only | Print | Product List | Glossary On
Versions: 1 2 3 4 5 6 7 8 9 10 11 12 13 14 15 16 17 18 19 20
000
FTUS44 KLIX 271132
TAFMCB
TAF
KMCB 271132Z 2712/2812 06005KT P6SM SCT005 BKN150
      TEMPO 2712/2715 4SM BR BKN005
     FM271600 09008KT P6SM BKN025
      TEMPO 2717/2721 VRB25G35KT +TSRA OVC010CB
     FM272200 10007KT P6SM VCTS BKN015CB
     FM280000 09007KT 4SM -SHRA BKN010=

USA.gov is the U.S. government's official web portal to all federal, state and local government web resources and services.